createdAt,value
2022-11-05T00:06:28.241Z,99786.81
2022-11-05T00:18:16.756Z,99782.31
2022-11-05T00:22:23.506Z,99787.53
2022-11-05T00:26:29.936Z,99786.84
2022-11-05T00:30:27.289Z,99776.41
2022-11-05T00:34:26.786Z,99775.69
2022-11-05T00:42:18.604Z,99774.97
2022-11-05T00:45:40.145Z,99750.81
2022-11-05T00:49:34.791Z,99764.81
2022-11-05T00:53:04.793Z,99752.06
2022-11-05T00:56:22.992Z,99776.22
2022-11-05T00:59:51.162Z,99772.97
2022-11-05T01:03:01.847Z,99791.56
2022-11-05T01:06:21.851Z,99796.16
2022-11-05T01:09:43.814Z,99794.38
2022-11-05T01:13:20.954Z,99778.88
2022-11-05T01:17:16.043Z,99774.78
2022-11-05T01:20:54.479Z,99785.16
2022-11-05T01:24:22.866Z,99764.34
2022-11-05T01:27:57.791Z,99781.00
2022-11-05T01:31:07.049Z,99742.97
2022-11-05T01:34:15.266Z,99771.66
2022-11-05T01:37:50.043Z,99769.88
2022-11-05T01:41:40.978Z,99766.56
2022-11-05T01:45:35.833Z,99801.31
2022-11-05T01:49:32.136Z,99803.03
2022-11-05T01:53:40.861Z,99803.75
2022-11-05T01:57:29.105Z,99810.91
2022-11-05T02:01:03.869Z,99822.44
2022-11-05T02:04:58.196Z,99807.75
2022-11-05T02:09:11.897Z,99819.22
2022-11-05T02:12:59.831Z,99821.22
2022-11-05T02:17:06.121Z,99813.38
2022-11-05T02:21:10.620Z,99816.22
2022-11-05T02:25:18.294Z,99815.53
2022-11-05T02:29:41.851Z,99826.37
2022-11-05T02:33:42.689Z,99817.69
2022-11-05T02:37:46.007Z,99810.78
2022-11-05T02:41:14.457Z,99828.59
2022-11-05T02:44:58.814Z,99829.47
2022-11-05T02:48:42.058Z,99827.81
2022-11-05T02:52:03.847Z,99837.53
2022-11-05T02:55:22.625Z,99834.09
2022-11-05T02:58:40.838Z,99839.44
2022-11-05T03:01:50.571Z,99836.06
2022-11-05T03:06:17.881Z,99845.62
2022-11-05T03:14:44.352Z,99822.91
2022-11-05T03:18:53.221Z,99829.78
2022-11-05T03:22:56.145Z,99849.22
2022-11-05T03:30:28.417Z,99830.41
2022-11-05T03:34:00.117Z,99852.19
2022-11-05T03:38:00.289Z,99863.44
2022-11-05T03:41:57.854Z,99859.31
2022-11-05T03:49:36.230Z,99860.97
2022-11-05T03:53:37.589Z,99868.09
2022-11-05T03:57:40.209Z,99881.09
2022-11-05T04:01:33.375Z,99863.91
2022-11-05T04:05:23.737Z,99874.59
2022-11-05T04:13:12.097Z,99855.19
2022-11-05T04:17:08.405Z,99860.22
2022-11-05T04:24:51.049Z,99854.38
2022-11-05T04:32:34.447Z,99874.44
2022-11-05T04:36:03.333Z,99870.09
2022-11-05T04:39:58.804Z,99842.94
2022-11-05T04:43:42.514Z,99836.91
2022-11-05T04:51:26.933Z,99861.13
2022-11-05T04:54:29.138Z,99839.44
2022-11-05T04:57:43.958Z,99861.09
2022-11-05T05:06:09.846Z,99859.31
2022-11-05T05:09:45.534Z,99863.69
2022-11-05T06:19:22.982Z,99929.31
2022-11-05T06:23:11.421Z,99946.69
2022-11-05T06:27:06.183Z,99935.38
2022-11-05T07:15:33.190Z,99977.94
2022-11-05T11:11:41.060Z,99905.06
2022-11-05T11:15:41.354Z,100041.25
2022-11-05T11:40:26.274Z,100044.72
2022-11-05T12:37:11.429Z,100083.66
2022-11-05T12:40:43.126Z,100007.59
2022-11-05T12:44:31.565Z,100067.97
2022-11-05T14:17:33.515Z,100120.62
2022-11-05T14:21:02.272Z,100126.94
2022-11-05T14:28:39.690Z,100135.78
2022-11-05T14:32:25.790Z,100140.34
2022-11-05T14:36:42.323Z,100132.69
2022-11-05T14:49:30.919Z,100129.41
2022-11-05T16:00:41.583Z,100199.94
2022-11-05T17:27:57.933Z,100281.81
2022-11-05T17:39:39.551Z,100291.16
2022-11-05T17:43:27.456Z,100295.72
2022-11-05T17:46:58.812Z,100302.00
2022-11-05T18:40:18.817Z,100360.34
2022-11-05T18:47:53.969Z,100365.75
2022-11-05T19:03:06.594Z,100388.84
2022-11-05T19:07:11.033Z,100392.38
2022-11-05T19:11:06.972Z,100394.16
2022-11-05T19:14:29.206Z,100396.94
2022-11-05T19:18:23.674Z,100376.81
2022-11-05T19:22:12.902Z,100390.81
2022-11-05T19:26:06.632Z,100407.75
2022-11-05T19:41:27.739Z,100433.34
2022-11-05T19:52:51.909Z,100437.81
2022-11-05T19:56:38.833Z,100451.88
2022-11-05T20:08:01.722Z,100469.62
2022-11-05T20:11:49.675Z,100472.16
2022-11-05T20:15:23.625Z,100475.75
2022-11-05T20:18:33.532Z,100481.09
2022-11-05T20:21:42.654Z,100480.25
2022-11-05T20:48:39.672Z,100463.97
2022-11-05T20:52:07.902Z,100502.25
2022-11-05T20:55:44.733Z,100507.56
2022-11-05T21:07:22.910Z,100512.75
2022-11-05T21:11:19.733Z,100517.25
2022-11-05T21:14:49.655Z,100520.03
2022-11-05T21:18:26.328Z,100519.13
2022-11-05T21:41:23.458Z,100511.34
2022-11-05T21:49:35.003Z,100514.94
2022-11-05T22:12:14.817Z,100535.13
2022-11-05T22:15:49.682Z,100529.97
2022-11-05T22:23:00.295Z,100537.84
2022-11-05T22:26:34.913Z,100544.19
2022-11-05T22:30:17.974Z,100533.66
2022-11-05T22:33:55.626Z,100523.09
2022-11-05T22:37:46.685Z,100538.94
2022-11-05T22:41:36.972Z,100533.66
2022-11-05T23:01:12.792Z,100546.97
2022-11-05T23:05:01.098Z,100544.53
2022-11-05T23:08:38.711Z,100546.06
2022-11-05T23:27:37.802Z,100554.06
2022-11-05T23:39:12.259Z,100541.13
2022-11-05T23:46:43.412Z,100542.94
2022-11-05T23:54:19.437Z,100564.88
